createdAt,value
2022-12-23T00:00:19.140Z,38.45
2022-12-23T00:02:47.845Z,38.42
2022-12-23T00:05:16.185Z,38.67
2022-12-23T00:07:46.638Z,38.08
2022-12-23T00:10:17.076Z,39.20
2022-12-23T00:13:03.046Z,40.58
2022-12-23T00:15:31.447Z,42.63
2022-12-23T00:18:00.518Z,40.08
2022-12-23T00:20:29.355Z,38.22
2022-12-23T00:23:07.076Z,40.25
2022-12-23T00:25:44.915Z,38.90
2022-12-23T00:28:14.743Z,38.97
2022-12-23T00:30:47.435Z,41.15
2022-12-23T00:33:16.583Z,42.10
2022-12-23T00:35:45.229Z,43.65
2022-12-23T00:38:14.092Z,44.17
2022-12-23T00:41:01.065Z,41.20
2022-12-23T00:43:29.552Z,39.78
2022-12-23T00:45:57.849Z,43.63
2022-12-23T00:48:46.043Z,42.53
2022-12-23T00:51:15.151Z,42.63
2022-12-23T00:53:46.282Z,41.60
2022-12-23T00:56:16.090Z,44.30
2022-12-23T00:58:44.599Z,42.05
2022-12-23T01:01:30.411Z,41.78
2022-12-23T01:04:15.956Z,40.58
2022-12-23T01:06:44.538Z,42.28
2022-12-23T01:09:13.091Z,43.20
2022-12-23T01:11:43.389Z,44.22
2022-12-23T01:14:11.651Z,43.28
2022-12-23T01:16:40.155Z,43.15
2022-12-23T01:19:09.122Z,40.33
2022-12-23T01:21:37.734Z,43.72
2022-12-23T01:24:06.387Z,42.67
2022-12-23T01:26:34.882Z,42.80
2022-12-23T01:29:05.326Z,41.45
2022-12-23T01:31:34.213Z,41.58
2022-12-23T01:34:02.983Z,40.50
2022-12-23T01:36:31.411Z,42.75
2022-12-23T01:38:59.692Z,40.28
2022-12-23T01:41:46.801Z,41.15
2022-12-23T01:44:34.598Z,41.72
2022-12-23T01:47:04.848Z,41.30
2022-12-23T01:49:33.549Z,41.10
2022-12-23T01:52:02.045Z,40.47
2022-12-23T01:54:30.801Z,40.45
2022-12-23T01:56:59.394Z,42.90
2022-12-23T01:59:45.952Z,40.53
2022-12-23T02:02:33.249Z,41.03
2022-12-23T02:05:01.940Z,42.78
2022-12-23T02:07:47.982Z,42.95
2022-12-23T02:10:18.269Z,40.83
2022-12-23T02:12:48.838Z,42.83
2022-12-23T02:15:49.083Z,40.35
2022-12-23T02:18:35.031Z,40.28
2022-12-23T02:21:13.032Z,40.70
2022-12-23T02:23:56.407Z,41.05
2022-12-23T02:26:49.096Z,41.65
2022-12-23T02:29:33.719Z,40.10
2022-12-23T02:32:07.363Z,40.05
2022-12-23T02:34:40.321Z,41.03
2022-12-23T02:37:12.334Z,42.33
2022-12-23T02:39:46.668Z,41.65
2022-12-23T02:42:17.431Z,41.67
2022-12-23T02:44:50.015Z,41.92
2022-12-23T02:47:21.225Z,40.38
2022-12-23T02:49:52.089Z,42.17
2022-12-23T02:52:22.114Z,41.42
2022-12-23T02:54:53.603Z,41.83
2022-12-23T02:57:24.482Z,42.35
2022-12-23T02:59:53.277Z,40.58
2022-12-23T03:02:23.862Z,42.08
2022-12-23T03:04:52.701Z,43.28
2022-12-23T03:07:24.887Z,42.90
2022-12-23T03:09:59.348Z,42.63
2022-12-23T03:12:34.384Z,43.20
2022-12-23T03:15:10.981Z,43.17
2022-12-23T03:17:49.638Z,40.60
2022-12-23T03:20:22.602Z,42.70
2022-12-23T03:22:56.499Z,41.67
2022-12-23T03:25:26.672Z,41.35
2022-12-23T03:27:59.482Z,41.95
2022-12-23T03:30:29.435Z,39.50
2022-12-23T03:33:03.287Z,41.35
2022-12-23T03:35:32.928Z,40.75
2022-12-23T03:38:02.731Z,40.40
2022-12-23T03:40:34.396Z,44.10
2022-12-23T03:43:05.181Z,42.50
2022-12-23T03:45:40.876Z,43.22
2022-12-23T03:48:15.377Z,41.38
2022-12-23T03:50:44.760Z,38.60
2022-12-23T03:53:15.887Z,43.22
2022-12-23T03:55:47.195Z,41.90
2022-12-23T03:58:19.533Z,41.85
2022-12-23T04:00:55.867Z,42.88
2022-12-23T04:03:29.728Z,43.33
2022-12-23T04:06:00.771Z,42.90
2022-12-23T04:08:31.837Z,42.22
2022-12-23T04:11:00.877Z,42.50
2022-12-23T04:13:29.891Z,42.88
2022-12-23T04:15:59.033Z,45.47
2022-12-23T04:18:29.427Z,44.10
2022-12-23T04:20:57.575Z,44.60
2022-12-23T04:23:25.793Z,45.40
2022-12-23T04:25:54.288Z,43.97
2022-12-23T04:28:23.230Z,41.03
2022-12-23T04:30:51.554Z,42.22
2022-12-23T04:33:20.124Z,42.80
2022-12-23T04:35:50.123Z,40.83
2022-12-23T04:38:18.684Z,40.08
2022-12-23T04:40:47.409Z,41.38
2022-12-23T04:43:15.838Z,40.88
2022-12-23T04:45:43.902Z,41.85
2022-12-23T04:48:12.015Z,40.45
2022-12-23T04:50:41.183Z,41.50
2022-12-23T04:53:11.262Z,40.03
2022-12-23T04:55:39.881Z,41.13
2022-12-23T04:58:11.761Z,39.42
2022-12-23T05:00:40.358Z,38.30
2022-12-23T05:03:09.286Z,40.03
2022-12-23T05:05:38.007Z,38.95
2022-12-23T05:08:07.682Z,40.33
2022-12-23T05:10:37.811Z,40.85
2022-12-23T05:13:06.303Z,39.78
2022-12-23T05:15:34.854Z,40.20
2022-12-23T05:18:03.377Z,39.72
2022-12-23T05:20:32.580Z,37.90
2022-12-23T05:23:01.443Z,41.08
2022-12-23T05:25:30.051Z,39.08
2022-12-23T05:28:00.445Z,37.15
2022-12-23T05:30:29.855Z,38.22
2022-12-23T05:32:58.876Z,38.92
2022-12-23T05:35:28.546Z,37.88
2022-12-23T05:37:57.815Z,39.90
2022-12-23T05:40:29.376Z,39.50
2022-12-23T05:43:01.721Z,39.72
2022-12-23T05:45:30.419Z,39.38
2022-12-23T05:47:58.989Z,38.50
2022-12-23T05:50:27.718Z,38.33
2022-12-23T05:52:56.215Z,39.08
2022-12-23T05:55:24.559Z,38.85
2022-12-23T05:57:53.511Z,38.85
2022-12-23T06:00:23.374Z,43.67
2022-12-23T06:02:53.819Z,40.22
2022-12-23T06:05:22.896Z,40.90
2022-12-23T06:07:51.525Z,40.58
2022-12-23T06:10:20.317Z,39.08
2022-12-23T06:12:48.991Z,40.90
2022-12-23T06:15:17.479Z,40.05
2022-12-23T06:17:48.513Z,37.95
2022-12-23T06:20:20.737Z,40.35
2022-12-23T06:22:49.341Z,40.40
2022-12-23T06:25:18.038Z,39.53
2022-12-23T06:27:46.330Z,41.05
2022-12-23T06:30:18.396Z,39.00
2022-12-23T06:32:49.023Z,39.42
2022-12-23T06:35:20.282Z,40.45
2022-12-23T06:37:48.817Z,41.47
2022-12-23T06:40:18.288Z,41.92
2022-12-23T06:42:46.611Z,43.13
2022-12-23T06:45:14.642Z,42.75
2022-12-23T06:47:43.251Z,41.67
2022-12-23T06:50:15.077Z,43.13
2022-12-23T06:52:44.684Z,45.15
2022-12-23T06:55:13.555Z,41.08
2022-12-23T06:57:42.353Z,42.83
2022-12-23T07:00:13.773Z,42.40
2022-12-23T07:02:42.581Z,39.83
2022-12-23T07:05:11.397Z,40.97
2022-12-23T07:07:41.854Z,41.72
2022-12-23T07:10:10.774Z,43.85
2022-12-23T07:12:39.633Z,42.80
2022-12-23T07:15:08.444Z,43.75
2022-12-23T07:17:37.015Z,44.03
2022-12-23T07:20:06.668Z,45.33
2022-12-23T07:22:36.499Z,43.20
2022-12-23T07:25:20.903Z,43.88
2022-12-23T07:27:49.753Z,42.03
2022-12-23T07:30:21.320Z,43.45
2022-12-23T07:32:50.747Z,42.78
2022-12-23T07:35:22.500Z,43.03
2022-12-23T07:37:52.892Z,45.28
2022-12-23T07:40:22.855Z,44.28
2022-12-23T07:42:57.345Z,42.13
2022-12-23T07:45:26.355Z,42.35
2022-12-23T07:47:55.048Z,44.15
2022-12-23T07:50:29.835Z,43.05
2022-12-23T07:52:59.895Z,39.33
2022-12-23T07:55:30.316Z,40.50
2022-12-23T07:57:59.105Z,41.13
2022-12-23T08:00:28.593Z,39.75
2022-12-23T08:02:57.366Z,38.33
2022-12-23T08:05:26.154Z,38.58
2022-12-23T08:07:55.252Z,38.55
2022-12-23T08:10:23.901Z,39.42
2022-12-23T08:12:54.586Z,38.38
2022-12-23T08:15:23.085Z,38.92
2022-12-23T08:17:51.618Z,36.47
2022-12-23T08:20:20.747Z,37.05
2022-12-23T08:22:48.924Z,36.33
2022-12-23T08:25:17.751Z,36.20
2022-12-23T08:27:46.056Z,35.03
2022-12-23T08:30:22.005Z,35.10
2022-12-23T08:32:50.553Z,37.20
2022-12-23T08:35:19.218Z,34.00
2022-12-23T08:37:48.301Z,34.08
2022-12-23T08:40:19.388Z,30.55
2022-12-23T08:42:50.136Z,33.55
2022-12-23T08:45:18.527Z,31.98
2022-12-23T08:47:51.290Z,33.83
2022-12-23T08:50:20.845Z,29.25
2022-12-23T08:52:48.953Z,30.63
2022-12-23T08:55:17.302Z,29.75
2022-12-23T08:57:46.102Z,30.30
2022-12-23T09:00:15.075Z,30.45
2022-12-23T09:02:44.069Z,31.73
2022-12-23T09:05:14.291Z,30.63
2022-12-23T09:07:43.393Z,31.63
2022-12-23T09:10:12.861Z,30.33
2022-12-23T09:12:44.825Z,31.27
2022-12-23T09:15:13.722Z,29.80
2022-12-23T09:17:42.324Z,32.00
2022-12-23T09:20:11.588Z,31.65
2022-12-23T09:22:41.786Z,32.15
2022-12-23T09:25:14.304Z,30.75
2022-12-23T09:27:42.623Z,29.65
2022-12-23T09:30:12.756Z,30.27
2022-12-23T09:32:42.891Z,29.58
2022-12-23T09:35:11.265Z,31.60
2022-12-23T09:37:40.000Z,29.45
2022-12-23T09:40:12.949Z,30.17
2022-12-23T09:42:47.493Z,30.20
2022-12-23T09:45:21.487Z,28.60
2022-12-23T09:47:50.711Z,31.23
2022-12-23T09:50:23.325Z,28.38
2022-12-23T09:52:55.893Z,30.17
2022-12-23T09:55:28.641Z,29.38
2022-12-23T09:58:01.125Z,28.80
2022-12-23T10:00:34.928Z,30.27
2022-12-23T10:03:15.189Z,29.55
2022-12-23T10:05:48.401Z,30.77
2022-12-23T10:08:19.557Z,32.40
2022-12-23T10:10:51.323Z,28.02
2022-12-23T10:13:26.131Z,28.08
2022-12-23T10:15:55.278Z,27.73
2022-12-23T10:18:26.766Z,28.08
2022-12-23T10:20:59.970Z,26.90
2022-12-23T10:23:30.097Z,24.85
2022-12-23T10:26:00.073Z,27.05
2022-12-23T10:28:29.846Z,27.63
2022-12-23T10:31:38.833Z,25.75
2022-12-23T10:33:56.129Z,26.00
2022-12-23T10:36:29.565Z,26.33
2022-12-23T10:39:02.109Z,26.38
2022-12-23T10:41:37.966Z,27.08
2022-12-23T10:44:33.446Z,27.57
2022-12-23T10:47:05.592Z,26.17
2022-12-23T10:49:38.926Z,26.23
2022-12-23T10:52:11.237Z,27.85
2022-12-23T10:54:40.315Z,28.40
2022-12-23T10:57:13.943Z,29.55
2022-12-23T10:59:44.691Z,27.23
2022-12-23T11:02:26.561Z,29.15
2022-12-23T11:04:55.146Z,26.27
2022-12-23T11:07:43.868Z,26.70
2022-12-23T11:10:18.726Z,27.30
2022-12-23T11:12:49.546Z,29.75
2022-12-23T11:15:29.085Z,25.67
2022-12-23T11:18:05.174Z,25.92
2022-12-23T11:20:34.956Z,26.98
2022-12-23T11:23:04.208Z,26.88
2022-12-23T11:25:34.782Z,30.05
2022-12-23T11:28:06.368Z,27.88
2022-12-23T11:30:37.575Z,25.95
2022-12-23T11:33:18.820Z,25.55
2022-12-23T11:35:47.495Z,27.15
2022-12-23T11:38:16.280Z,28.52
2022-12-23T11:40:48.116Z,28.13
2022-12-23T11:43:19.009Z,26.52
2022-12-23T11:45:47.682Z,25.15
2022-12-23T11:48:28.550Z,29.23
2022-12-23T11:50:59.684Z,29.70
2022-12-23T11:53:28.193Z,26.13
2022-12-23T11:56:01.579Z,30.38
2022-12-23T11:58:32.788Z,26.77
2022-12-23T12:01:02.114Z,30.45
2022-12-23T12:03:32.855Z,29.90
2022-12-23T12:06:03.951Z,29.25
2022-12-23T12:08:33.369Z,28.98
2022-12-23T12:11:03.956Z,28.58
2022-12-23T12:13:37.437Z,29.23
2022-12-23T12:16:13.365Z,28.63
2022-12-23T12:18:43.202Z,27.47
2022-12-23T12:21:13.178Z,29.08
2022-12-23T12:23:44.042Z,32.72
2022-12-23T12:26:15.628Z,27.73
2022-12-23T12:28:47.144Z,29.42
2022-12-23T12:31:24.449Z,30.98
2022-12-23T12:33:55.228Z,27.75
2022-12-23T12:36:30.407Z,29.88
2022-12-23T12:39:00.008Z,31.83
2022-12-23T12:41:30.714Z,29.38
2022-12-23T12:44:05.268Z,29.27
2022-12-23T12:46:36.469Z,31.05
2022-12-23T12:49:07.521Z,30.50
2022-12-23T12:51:39.474Z,30.23
2022-12-23T12:54:12.945Z,29.98
2022-12-23T12:56:43.021Z,28.92
2022-12-23T12:59:16.878Z,33.45
2022-12-23T13:01:49.975Z,28.35
2022-12-23T13:04:25.807Z,32.88
2022-12-23T13:06:58.066Z,30.10
2022-12-23T13:09:31.108Z,30.23
2022-12-23T13:12:03.094Z,28.60
2022-12-23T13:14:36.119Z,31.85
2022-12-23T13:17:08.142Z,27.98
2022-12-23T13:19:40.213Z,31.30
2022-12-23T13:22:10.488Z,32.38
2022-12-23T13:24:43.776Z,31.98
2022-12-23T13:27:15.627Z,31.90
2022-12-23T13:30:02.012Z,32.67
2022-12-23T13:35:04.526Z,28.17
2022-12-23T13:37:37.501Z,31.92
2022-12-23T13:40:11.422Z,28.45
2022-12-23T13:42:42.474Z,29.30
2022-12-23T13:45:14.119Z,30.40
2022-12-23T13:47:47.074Z,29.25
2022-12-23T13:50:21.433Z,30.60
2022-12-23T13:53:01.465Z,29.35
2022-12-23T13:55:40.825Z,30.23
2022-12-23T13:58:12.683Z,31.65
2022-12-23T14:00:41.465Z,27.35
2022-12-23T14:03:21.024Z,27.02
2022-12-23T14:05:51.648Z,27.73
2022-12-23T14:08:25.051Z,26.60
2022-12-23T14:10:55.609Z,29.30
2022-12-23T14:17:10.110Z,30.48
2022-12-23T14:19:57.587Z,31.70
2022-12-23T14:22:35.460Z,29.48
2022-12-23T14:25:16.223Z,29.85
2022-12-23T14:27:49.802Z,28.48
2022-12-23T14:30:23.511Z,28.27
2022-12-23T14:32:52.962Z,31.48
2022-12-23T14:35:23.339Z,35.03
2022-12-23T14:38:22.767Z,29.80
2022-12-23T14:41:01.620Z,27.30
2022-12-23T14:43:47.605Z,31.55
2022-12-23T14:46:44.507Z,31.13
2022-12-23T14:49:38.893Z,27.45
2022-12-23T14:52:30.710Z,28.55
2022-12-23T14:55:32.115Z,28.30
2022-12-23T14:58:07.552Z,27.98
2022-12-23T15:00:46.176Z,27.52
2022-12-23T15:03:14.855Z,33.15
2022-12-23T15:05:44.203Z,27.55
2022-12-23T15:08:22.683Z,29.10
2022-12-23T15:10:53.567Z,27.00
2022-12-23T15:13:22.169Z,27.08
2022-12-23T15:16:01.038Z,28.30
2022-12-23T15:18:30.499Z,29.85
2022-12-23T15:21:00.242Z,30.63
2022-12-23T15:23:29.391Z,30.27
2022-12-23T15:25:59.848Z,29.10
2022-12-23T15:28:36.204Z,27.65
2022-12-23T15:31:06.701Z,32.45
2022-12-23T15:34:03.045Z,28.75
2022-12-23T15:36:30.812Z,30.02
2022-12-23T15:39:00.429Z,30.60
2022-12-23T15:41:30.531Z,31.73
2022-12-23T15:44:01.876Z,36.30
2022-12-23T15:46:30.898Z,32.15
2022-12-23T15:48:59.809Z,39.10
2022-12-23T15:54:23.611Z,39.33
2022-12-23T15:56:54.787Z,36.08
2022-12-23T15:59:25.536Z,33.92
2022-12-23T16:14:40.327Z,30.77
2022-12-23T16:17:18.438Z,31.10
2022-12-23T16:19:51.340Z,33.45
2022-12-23T16:22:24.096Z,31.67
2022-12-23T16:25:00.892Z,31.15
2022-12-23T16:27:36.342Z,30.40
2022-12-23T16:30:11.541Z,30.95
2022-12-23T16:32:46.993Z,28.98
2022-12-23T16:35:24.828Z,29.80
2022-12-23T16:37:54.395Z,26.58
2022-12-23T16:40:36.218Z,26.23
2022-12-23T16:43:23.312Z,25.63
2022-12-23T16:46:09.365Z,24.80
2022-12-23T16:48:43.317Z,28.27
2022-12-23T16:51:18.649Z,26.92
2022-12-23T16:53:47.458Z,26.85
2022-12-23T16:56:19.403Z,32.03
2022-12-23T16:58:53.902Z,33.88
2022-12-23T17:01:24.240Z,32.13
2022-12-23T17:04:05.404Z,25.92
2022-12-23T17:07:01.178Z,25.48
2022-12-23T17:09:31.879Z,26.55
2022-12-23T17:12:03.600Z,26.98
2022-12-23T17:14:32.599Z,31.77
2022-12-23T17:17:04.766Z,34.15
2022-12-23T17:19:35.140Z,32.83
2022-12-23T17:22:04.605Z,34.28
2022-12-23T17:24:33.272Z,34.33
2022-12-23T17:27:01.656Z,33.30
2022-12-23T17:29:30.870Z,32.30
2022-12-23T17:32:00.245Z,32.50
2022-12-23T17:34:28.879Z,33.95
2022-12-23T17:37:01.415Z,33.25
2022-12-23T17:39:30.145Z,34.22
2022-12-23T17:42:00.572Z,44.65
2022-12-23T17:44:40.001Z,43.75
2022-12-23T17:47:22.140Z,44.13
2022-12-23T17:49:56.520Z,42.58
2022-12-23T17:52:34.464Z,35.95
2022-12-23T17:55:04.532Z,42.20
2022-12-23T17:57:37.629Z,49.75
2022-12-23T18:00:25.105Z,39.13
2022-12-23T18:02:58.825Z,32.55
2022-12-23T18:05:30.135Z,34.75
2022-12-23T18:08:01.347Z,39.97
2022-12-23T18:10:31.188Z,36.70
2022-12-23T18:13:01.110Z,39.08
2022-12-23T18:15:32.910Z,37.20
2022-12-23T18:18:01.619Z,41.90
2022-12-23T18:20:34.016Z,40.60
2022-12-23T18:23:05.168Z,38.47
2022-12-23T18:25:33.988Z,37.65
2022-12-23T18:28:02.515Z,35.22
2022-12-23T18:30:32.176Z,30.45
2022-12-23T18:33:03.070Z,34.33
2022-12-23T18:35:32.547Z,31.15
2022-12-23T18:38:01.263Z,36.80
2022-12-23T18:40:33.224Z,35.53
2022-12-23T18:43:02.329Z,31.73
2022-12-23T18:45:33.721Z,34.17
2022-12-23T18:48:02.634Z,33.83
2022-12-23T18:50:32.375Z,37.28
2022-12-23T18:53:00.984Z,37.67
2022-12-23T18:55:30.375Z,39.08
2022-12-23T18:58:00.819Z,32.88
2022-12-23T19:00:29.964Z,32.83
2022-12-23T19:02:58.788Z,31.58
2022-12-23T19:05:28.512Z,26.80
2022-12-23T19:07:58.674Z,26.35
2022-12-23T19:10:28.419Z,25.48
2022-12-23T19:12:57.766Z,25.42
2022-12-23T19:15:28.195Z,34.20
2022-12-23T19:17:57.240Z,33.10
2022-12-23T19:20:26.625Z,33.33
2022-12-23T19:22:55.378Z,33.08
2022-12-23T19:25:24.145Z,29.55
2022-12-23T19:27:52.277Z,26.50
2022-12-23T19:30:22.416Z,25.77
2022-12-23T19:32:53.424Z,22.65
2022-12-23T19:35:21.844Z,25.60
2022-12-23T19:37:50.895Z,26.05
2022-12-23T19:40:20.118Z,26.38
2022-12-23T19:42:48.453Z,28.42
2022-12-23T19:45:17.282Z,27.70
2022-12-23T19:47:45.904Z,29.40
2022-12-23T19:50:20.120Z,30.10
2022-12-23T19:52:50.165Z,25.77
2022-12-23T19:55:19.121Z,27.98
2022-12-23T19:57:52.421Z,27.88
2022-12-23T20:00:20.715Z,33.03
2022-12-23T20:02:52.506Z,31.85
2022-12-23T20:05:27.393Z,32.92
2022-12-23T20:07:56.044Z,32.25
2022-12-23T20:10:25.181Z,33.08
2022-12-23T20:12:53.885Z,31.40
2022-12-23T20:15:22.353Z,31.45
2022-12-23T20:17:51.429Z,37.60
2022-12-23T20:20:21.058Z,32.53
2022-12-23T20:22:50.849Z,34.72
2022-12-23T20:25:19.587Z,31.25
2022-12-23T20:27:48.265Z,26.17
2022-12-23T20:30:17.199Z,24.25
2022-12-23T20:32:45.830Z,24.35
2022-12-23T20:35:14.583Z,23.73
2022-12-23T20:37:43.490Z,24.63
2022-12-23T20:40:15.696Z,24.08
2022-12-23T20:42:44.449Z,24.10
2022-12-23T20:45:13.571Z,23.75
2022-12-23T20:47:41.868Z,25.42
2022-12-23T20:50:17.075Z,22.08
2022-12-23T20:52:45.620Z,21.67
2022-12-23T20:55:15.801Z,25.92
2022-12-23T20:57:46.226Z,23.42
2022-12-23T21:00:16.611Z,23.17
2022-12-23T21:02:45.207Z,20.17
2022-12-23T21:05:13.726Z,22.25
2022-12-23T21:07:42.393Z,23.65
2022-12-23T21:10:12.753Z,21.20
2022-12-23T21:12:43.658Z,21.45
2022-12-23T21:15:12.024Z,20.90
2022-12-23T21:17:40.518Z,20.27
2022-12-23T21:20:13.824Z,21.98
2022-12-23T21:22:42.587Z,19.88
2022-12-23T21:25:11.410Z,23.48
2022-12-23T21:27:41.805Z,26.00
2022-12-23T21:30:15.791Z,26.08
2022-12-23T21:32:44.004Z,31.23
2022-12-23T21:35:12.869Z,26.23
2022-12-23T21:37:41.971Z,25.27
2022-12-23T21:40:14.850Z,23.65
2022-12-23T21:42:43.312Z,28.13
2022-12-23T21:45:12.201Z,28.85
2022-12-23T21:47:43.647Z,25.15
2022-12-23T21:50:16.340Z,24.50
2022-12-23T21:52:47.642Z,24.55
2022-12-23T21:55:18.271Z,23.92
2022-12-23T21:57:46.912Z,24.70
2022-12-23T22:00:15.796Z,30.67
2022-12-23T22:02:46.494Z,27.38
2022-12-23T22:05:15.352Z,25.60
2022-12-23T22:07:44.091Z,24.33
2022-12-23T22:10:17.829Z,26.02
2022-12-23T22:12:46.923Z,24.55
2022-12-23T22:15:15.287Z,22.95
2022-12-23T22:17:44.012Z,22.15
2022-12-23T22:20:17.056Z,21.67
2022-12-23T22:22:45.797Z,22.42
2022-12-23T22:25:14.385Z,21.63
2022-12-23T22:27:43.360Z,22.73
2022-12-23T22:30:12.649Z,21.95
2022-12-23T22:32:42.699Z,22.75
2022-12-23T22:35:14.439Z,21.35
2022-12-23T22:37:45.354Z,21.42
2022-12-23T22:40:14.447Z,20.00
2022-12-23T22:42:44.575Z,20.50
2022-12-23T22:45:13.869Z,19.67
2022-12-23T22:47:42.683Z,21.05
2022-12-23T22:50:12.644Z,21.05
2022-12-23T22:52:45.150Z,20.48
2022-12-23T22:55:13.729Z,19.23
2022-12-23T22:57:42.083Z,21.30
2022-12-23T23:00:12.892Z,20.27
2022-12-23T23:02:43.068Z,20.65
2022-12-23T23:05:13.191Z,20.38
2022-12-23T23:07:41.578Z,19.73
2022-12-23T23:10:13.356Z,20.10
2022-12-23T23:12:44.169Z,19.52
2022-12-23T23:15:12.875Z,18.60
2022-12-23T23:17:41.039Z,19.60
2022-12-23T23:20:10.145Z,17.60
2022-12-23T23:22:40.808Z,17.90
2022-12-23T23:25:10.201Z,17.45
2022-12-23T23:27:40.495Z,17.52
2022-12-23T23:30:10.020Z,17.85
2022-12-23T23:32:38.730Z,17.42
2022-12-23T23:35:10.921Z,18.88
2022-12-23T23:37:39.405Z,19.45
2022-12-23T23:40:08.841Z,20.50
2022-12-23T23:42:37.656Z,19.52
2022-12-23T23:45:08.402Z,21.52
2022-12-23T23:47:36.993Z,21.27
2022-12-23T23:50:09.795Z,21.77
2022-12-23T23:52:38.347Z,23.83
2022-12-23T23:55:07.040Z,21.45
2022-12-23T23:57:35.967Z,23.95
